Time;durP1;ratioP1;P1;durP2;ratioP2;P2;SDS_P1;SDS_P2;PMS_P1;PMS_P2;Temp;Humidity;BMP_temperature;BMP_pressure;BME280_temperature;BME280_humidity;BME280_pressure;Samples;Min_cycle;Max_cycle;Signal;HPM_P1;HPM_P2
2024/01/06 00:02:25;;;;;;;0.25;0.17;;;;;;;8.53;69.04;100529.28;5055602;28;20018;-81
2024/01/06 00:04:51;;;;;;;0.20;0.20;;;;;;;8.46;69.06;100524.97;5053726;28;20028;-81
2024/01/06 00:07:18;;;;;;;1.05;1.05;;;;;;;8.33;68.59;100535.72;5056921;28;20022;-80
2024/01/06 00:09:44;;;;;;;0.15;0.15;;;;;;;8.36;68.59;100533.06;5052726;28;20045;-81
2024/01/06 00:12:10;;;;;;;0.20;0.20;;;;;;;8.29;68.41;100541.94;5053353;28;20097;-81
2024/01/06 00:14:36;;;;;;;0.20;0.20;;;;;;;8.29;68.53;100534.03;5058481;28;20091;-82
2024/01/06 00:17:03;;;;;;;0.17;0.17;;;;;;;8.33;68.82;100542.78;5056312;28;20030;-81
2024/01/06 00:19:29;;;;;;;0.20;0.20;;;;;;;8.32;69.03;100543.66;5057668;28;20036;-82
2024/01/06 00:21:55;;;;;;;0.75;0.75;;;;;;;8.38;68.84;100541.78;5056655;28;20040;-81
2024/01/06 00:24:22;;;;;;;0.20;0.20;;;;;;;8.33;68.47;100548.91;5055061;28;20030;-81
2024/01/06 00:26:48;;;;;;;0.10;0.10;;;;;;;8.31;68.78;100545.44;5056251;28;20052;-82
2024/01/06 00:29:14;;;;;;;0.32;0.32;;;;;;;8.35;68.62;100540.97;5056458;28;20039;-81
2024/01/06 00:31:40;;;;;;;0.30;0.30;;;;;;;8.31;68.39;100552.47;5056720;28;20036;-80
2024/01/06 00:34:06;;;;;;;0.30;0.30;;;;;;;8.16;68.10;100556.22;5054017;28;20032;-81
2024/01/06 00:36:32;;;;;;;0.17;0.17;;;;;;;8.20;68.56;100552.63;5054856;28;20088;-82
2024/01/06 00:38:59;;;;;;;0.20;0.20;;;;;;;8.12;68.58;100549.25;5053552;28;20518;-81
2024/01/06 00:41:25;;;;;;;0.20;0.20;;;;;;;8.05;68.60;100549.34;5054729;28;20029;-80
2024/01/06 00:43:51;;;;;;;0.10;0.10;;;;;;;8.12;68.27;100562.44;5051474;28;20119;-81
2024/01/06 00:46:17;;;;;;;0.10;0.10;;;;;;;8.07;68.78;100563.41;5050474;28;20029;-81
2024/01/06 00:48:43;;;;;;;0.10;0.10;;;;;;;8.17;68.61;100563.25;5055646;28;20108;-81
2024/01/06 00:51:10;;;;;;;0.10;0.10;;;;;;;8.18;69.12;100570.28;5060200;28;20029;-81
2024/01/06 00:53:36;;;;;;;0.10;0.10;;;;;;;8.19;69.02;100572.03;5054554;28;20048;-81
2024/01/06 00:56:02;;;;;;;0.20;0.20;;;;;;;8.07;68.51;100576.59;5054217;28;20029;-81
2024/01/06 00:58:28;;;;;;;0.25;0.25;;;;;;;8.19;68.76;100577.31;5052456;28;20037;-79
2024/01/06 01:00:55;;;;;;;0.10;0.10;;;;;;;8.20;69.16;100579.03;5051824;28;20430;-79
2024/01/06 01:03:21;;;;;;;0.20;0.20;;;;;;;8.23;69.04;100573.72;5052419;28;20036;-80
2024/01/06 01:05:47;;;;;;;0.10;0.10;;;;;;;8.20;68.30;100579.91;5054161;28;20041;-80
2024/01/06 01:08:13;;;;;;;0.13;0.13;;;;;;;8.21;68.88;100588.69;5051554;28;20050;-79
2024/01/06 01:10:39;;;;;;;0.30;0.30;;;;;;;8.18;68.54;100588.75;5052577;28;20043;-80
2024/01/06 01:13:05;;;;;;;0.20;0.20;;;;;;;8.07;68.24;100589.78;5051939;28;20079;-80
2024/01/06 01:15:32;;;;;;;0.10;0.10;;;;;;;8.06;67.77;100595.94;5053020;28;20040;-80
2024/01/06 01:17:58;;;;;;;0.13;0.13;;;;;;;7.96;67.65;100610.13;5054219;28;20040;-81
2024/01/06 01:20:24;;;;;;;0.20;0.20;;;;;;;7.92;66.82;100622.53;5049026;28;20093;-80
2024/01/06 01:22:50;;;;;;;0.15;0.15;;;;;;;8.05;67.09;100623.22;5052146;28;20029;-81
2024/01/06 01:25:17;;;;;;;0.20;0.20;;;;;;;7.99;66.77;100628.56;5054806;28;20766;-81
2024/01/06 01:27:43;;;;;;;0.20;0.20;;;;;;;8.05;66.88;100623.22;5061079;28;20021;-80
2024/01/06 01:30:09;;;;;;;0.10;0.10;;;;;;;8.01;66.63;100624.16;5062064;28;20033;-81
2024/01/06 01:32:37;;;;;;;0.20;0.20;;;;;;;8.07;67.02;100629.38;5050985;28;20048;-81
2024/01/06 01:35:03;;;;;;;0.20;0.20;;;;;;;8.02;66.61;100627.66;5062161;28;20032;-81
2024/01/06 01:37:29;;;;;;;0.10;0.10;;;;;;;8.04;67.05;100632.03;5057419;28;20032;-81
2024/01/06 01:39:56;;;;;;;0.13;0.13;;;;;;;8.08;66.97;100636.38;5057783;28;20044;-81
2024/01/06 01:42:22;;;;;;;2.10;1.10;;;;;;;8.00;67.33;100640.00;5058818;28;20032;-82
2024/01/06 01:44:48;;;;;;;0.20;0.20;;;;;;;8.03;67.11;100638.19;5060419;28;20064;-82
2024/01/06 01:47:18;;;;;;;0.20;0.20;;;;;;;7.98;67.87;100644.44;5058656;28;20158;-81
2024/01/06 01:49:46;;;;;;;0.30;0.30;;;;;;;8.01;67.44;100642.63;5058924;28;20100;-80
2024/01/06 01:52:14;;;;;;;0.35;0.35;;;;;;;8.09;67.81;100651.31;5061149;28;20029;-80
2024/01/06 01:54:42;;;;;;;0.20;0.20;;;;;;;8.15;67.54;100652.13;5059199;28;20052;-80
2024/01/06 01:57:09;;;;;;;0.10;0.10;;;;;;;8.15;67.85;100654.75;5055814;28;20040;-80
2024/01/06 01:59:36;;;;;;;0.20;0.20;;;;;;;7.99;68.13;100665.50;5059755;28;20017;-80
2024/01/06 02:02:03;;;;;;;0.20;0.20;;;;;;;8.04;68.07;100671.59;5054299;28;20052;-80
2024/01/06 02:04:29;;;;;;;0.17;0.17;;;;;;;8.01;67.83;100669.03;5051181;28;20033;-80
2024/01/06 02:06:55;;;;;;;0.13;0.13;;;;;;;7.99;67.85;100665.50;5053971;28;20071;-79
2024/01/06 02:09:26;;;;;;;0.20;0.20;;;;;;;7.96;67.64;100669.94;5056275;28;20107;-78
2024/01/06 02:11:53;;;;;;;0.43;0.43;;;;;;;7.91;67.47;100667.34;5056927;28;20025;-78
2024/01/06 02:14:19;;;;;;;0.20;0.20;;;;;;;7.76;67.16;100669.31;5049434;28;20044;-78
2024/01/06 02:16:45;;;;;;;0.52;0.52;;;;;;;7.82;66.98;100670.13;5052366;28;20104;-78
2024/01/06 02:19:12;;;;;;;0.20;0.20;;;;;;;7.79;66.61;100678.94;5052971;28;20041;-78
2024/01/06 02:21:42;;;;;;;0.70;0.68;;;;;;;7.84;67.12;100682.41;5050977;28;20047;-79
2024/01/06 02:24:09;;;;;;;0.20;0.20;;;;;;;7.75;66.31;100688.66;5052614;28;20557;-78
2024/01/06 02:26:35;;;;;;;0.10;0.10;;;;;;;7.77;67.15;100707.94;5051805;28;20051;-78
2024/01/06 02:29:01;;;;;;;0.20;0.20;;;;;;;7.78;66.91;100698.28;5053396;28;20053;-78
2024/01/06 02:31:28;;;;;;;0.20;0.20;;;;;;;7.80;66.30;100706.19;5056483;28;20108;-80
2024/01/06 02:33:54;;;;;;;0.10;0.10;;;;;;;7.76;66.87;100702.69;5054568;28;20496;-80
2024/01/06 02:36:20;;;;;;;0.20;0.20;;;;;;;7.69;66.40;100707.19;5054942;28;20127;-80
2024/01/06 02:38:46;;;;;;;0.10;0.10;;;;;;;7.65;66.87;100708.09;5048954;28;20033;-79
2024/01/06 02:41:13;;;;;;;0.10;0.10;;;;;;;7.63;66.62;100709.88;5052515;28;20043;-79
2024/01/06 02:43:39;;;;;;;0.20;0.20;;;;;;;7.73;66.63;100710.66;5056840;28;20024;-79
2024/01/06 02:46:06;;;;;;;0.20;0.20;;;;;;;7.77;66.99;100715.84;5052816;28;20033;-79
2024/01/06 02:48:32;;;;;;;0.40;0.40;;;;;;;7.84;66.68;100721.06;5049343;28;20128;-80
2024/01/06 02:50:59;;;;;;;0.20;0.20;;;;;;;7.82;66.84;100720.22;5049497;28;20078;-80
2024/01/06 02:53:25;;;;;;;0.10;0.10;;;;;;;7.78;66.89;100730.81;5051301;28;20044;-80
2024/01/06 02:55:51;;;;;;;0.20;0.20;;;;;;;7.84;67.01;100731.63;5055649;28;20077;-80
2024/01/06 02:58:17;;;;;;;0.10;0.10;;;;;;;7.83;67.11;100732.53;5049600;28;20036;-80
2024/01/06 03:00:43;;;;;;;0.20;0.20;;;;;;;7.83;66.83;100741.31;5055139;28;20063;-79
2024/01/06 03:03:10;;;;;;;0.20;0.20;;;;;;;7.77;66.81;100744.88;5054562;28;20029;-79
2024/01/06 03:05:36;;;;;;;0.10;0.10;;;;;;;7.76;66.92;100742.25;5052916;28;20120;-79
2024/01/06 03:08:03;;;;;;;0.15;0.15;;;;;;;7.71;67.18;100737.06;5052747;28;20035;-78
2024/01/06 03:10:30;;;;;;;0.30;0.30;;;;;;;7.77;66.49;100744.88;5054249;28;20049;-79
2024/01/06 03:12:56;;;;;;;0.20;0.20;;;;;;;7.71;66.81;100747.59;5052112;28;20036;-79
2024/01/06 03:15:22;;;;;;;0.10;0.10;;;;;;;7.69;67.00;100752.00;5054868;28;20040;-79
2024/01/06 03:17:48;;;;;;;0.20;0.20;;;;;;;7.72;67.06;100751.97;5054321;28;20029;-78
2024/01/06 03:20:15;;;;;;;0.20;0.20;;;;;;;7.82;67.15;100757.16;5055027;28;20036;-79
2024/01/06 03:22:41;;;;;;;0.20;0.20;;;;;;;7.82;66.83;100759.81;5051845;28;20167;-79
2024/01/06 03:25:07;;;;;;;0.15;0.15;;;;;;;7.75;67.42;100757.22;5051426;28;20151;-79
2024/01/06 03:27:34;;;;;;;0.20;0.20;;;;;;;7.74;67.41;100766.03;5054746;28;20497;-79
2024/01/06 03:30:00;;;;;;;0.10;0.10;;;;;;;7.69;67.08;100762.56;5054445;28;20040;-78
2024/01/06 03:32:28;;;;;;;0.20;0.20;;;;;;;7.71;67.45;100771.34;5054503;28;20725;-78
2024/01/06 03:34:54;;;;;;;0.20;0.20;;;;;;;7.64;67.14;100768.75;5059812;28;20040;-79
2024/01/06 03:37:22;;;;;;;0.10;0.10;;;;;;;7.72;67.43;100772.19;5059047;28;20040;-81
2024/01/06 03:39:48;;;;;;;0.20;0.20;;;;;;;7.75;67.25;100773.03;5049429;28;20043;-81
2024/01/06 03:42:14;;;;;;;0.20;0.20;;;;;;;7.74;67.60;100779.22;5059060;28;20025;-80
2024/01/06 03:44:40;;;;;;;0.15;0.15;;;;;;;7.72;67.27;100788.03;5060283;28;20040;-81
2024/01/06 03:47:07;;;;;;;0.35;0.35;;;;;;;7.58;67.49;100790.78;5058960;28;20030;-81
2024/01/06 03:49:33;;;;;;;0.30;0.30;;;;;;;7.58;66.98;100788.16;5056174;28;20524;-80
2024/01/06 03:51:59;;;;;;;0.20;0.20;;;;;;;7.66;66.96;100802.13;5053654;28;20132;-81
2024/01/06 03:54:25;;;;;;;0.20;0.20;;;;;;;7.70;67.38;100800.34;5059881;28;20094;-81
2024/01/06 03:56:51;;;;;;;0.20;0.20;;;;;;;7.67;67.45;100806.50;5065322;28;20025;-82
2024/01/06 03:59:17;;;;;;;0.63;0.63;;;;;;;7.70;67.47;100800.34;5059508;28;20044;-81
2024/01/06 04:01:43;;;;;;;0.20;0.20;;;;;;;7.58;67.20;100804.84;5057229;28;20029;-81
2024/01/06 04:04:10;;;;;;;0.65;0.65;;;;;;;7.60;67.67;100807.44;5064971;28;20036;-81
2024/01/06 04:06:36;;;;;;;0.20;0.20;;;;;;;7.71;67.82;100807.38;5064857;28;20048;-79
2024/01/06 04:09:02;;;;;;;0.13;0.13;;;;;;;7.71;67.13;100812.63;5067876;28;20033;-81
2024/01/06 04:11:28;;;;;;;0.17;0.17;;;;;;;7.63;67.59;100814.47;5060234;28;20050;-81
2024/01/06 04:13:54;;;;;;;0.38;0.38;;;;;;;7.55;67.78;100822.44;5060621;28;20018;-81
2024/01/06 04:16:21;;;;;;;0.20;0.20;;;;;;;7.55;67.95;100820.69;5059388;28;20032;-81
2024/01/06 04:18:47;;;;;;;0.10;0.10;;;;;;;7.54;67.81;100825.94;5056577;28;20041;-82
2024/01/06 04:21:13;;;;;;;0.13;0.13;;;;;;;7.51;68.05;100823.34;5057633;28;20056;-82
2024/01/06 04:23:39;;;;;;;0.30;0.30;;;;;;;7.51;68.37;100826.84;5054781;28;20033;-80
2024/01/06 04:26:06;;;;;;;0.32;0.32;;;;;;;7.59;68.09;100826.81;5051736;28;20025;-81
2024/01/06 04:28:32;;;;;;;0.32;0.32;;;;;;;7.51;68.01;100829.50;5059820;28;20021;-79
2024/01/06 04:30:59;;;;;;;0.20;0.20;;;;;;;7.54;67.63;100836.50;5057580;28;20410;-81
2024/01/06 04:33:25;;;;;;;0.77;0.52;;;;;;;7.37;67.21;100848.06;5051609;28;20029;-80
2024/01/06 04:35:51;;;;;;;0.35;0.35;;;;;;;7.38;66.97;100843.66;5062830;28;20713;-82
2024/01/06 04:38:17;;;;;;;0.13;0.13;;;;;;;7.40;67.26;100840.13;5059572;28;20032;-81
2024/01/06 04:40:43;;;;;;;0.20;0.20;;;;;;;7.46;67.49;100849.75;5060759;28;20060;-81
2024/01/06 04:43:09;;;;;;;0.20;0.20;;;;;;;7.48;67.42;100852.38;5047373;28;20036;-81
2024/01/06 04:45:37;;;;;;;0.82;0.82;;;;;;;7.53;67.04;100845.31;5053334;28;20033;-81
2024/01/06 04:48:04;;;;;;;0.95;0.95;;;;;;;7.49;67.52;100854.13;5061349;28;20032;-80
2024/01/06 04:50:30;;;;;;;0.20;0.20;;;;;;;7.55;67.68;100851.44;5064456;28;20035;-80
2024/01/06 04:52:57;;;;;;;0.10;0.10;;;;;;;7.46;67.20;100855.00;5065043;28;20029;-81
2024/01/06 04:55:23;;;;;;;0.20;0.20;;;;;;;7.57;67.68;100844.41;5062535;28;20492;-81
2024/01/06 04:57:49;;;;;;;0.20;0.20;;;;;;;7.52;67.93;100848.84;5055085;28;20033;-81
2024/01/06 05:00:16;;;;;;;0.20;0.20;;;;;;;7.57;67.83;100852.31;5049176;28;20197;-80
2024/01/06 05:02:43;;;;;;;0.20;0.20;;;;;;;7.53;67.83;100861.16;5048780;28;20029;-80
2024/01/06 05:05:09;;;;;;;0.13;0.13;;;;;;;7.47;67.68;100858.53;5060200;28;20037;-81
2024/01/06 05:07:35;;;;;;;0.10;0.10;;;;;;;7.41;67.68;100857.72;5055958;28;20017;-81
2024/01/06 05:10:02;;;;;;;0.15;0.15;;;;;;;7.42;67.93;100862.06;5055819;28;20086;-79
2024/01/06 05:12:28;;;;;;;0.10;0.10;;;;;;;7.39;67.52;100864.75;5053116;28;20033;-81
2024/01/06 05:14:54;;;;;;;0.17;0.17;;;;;;;7.35;67.89;100868.28;5056010;28;20096;-81
2024/01/06 05:17:20;;;;;;;0.20;0.20;;;;;;;7.43;67.86;100873.50;5054188;28;20048;-80
2024/01/06 05:19:46;;;;;;;0.30;0.30;;;;;;;7.38;67.91;100873.53;5061324;28;20028;-80
2024/01/06 05:22:12;;;;;;;0.10;0.10;;;;;;;7.38;67.23;100881.44;5059865;28;20033;-79
2024/01/06 05:24:39;;;;;;;0.10;0.10;;;;;;;7.27;68.11;100886.75;5057229;28;20059;-80
2024/01/06 05:27:05;;;;;;;0.20;0.20;;;;;;;7.33;67.41;100883.22;5050583;28;20054;-79
2024/01/06 05:29:31;;;;;;;0.13;0.13;;;;;;;7.16;67.31;100885.94;5050860;28;20287;-81
2024/01/06 05:31:57;;;;;;;0.20;0.20;;;;;;;7.23;67.37;100894.72;5055356;28;20098;-80
2024/01/06 05:34:23;;;;;;;0.10;0.10;;;;;;;7.28;67.90;100887.66;5058450;28;20032;-80
2024/01/06 05:36:49;;;;;;;0.20;0.20;;;;;;;7.15;67.51;100885.97;5051589;28;20025;-82
2024/01/06 05:39:15;;;;;;;0.40;0.40;;;;;;;7.27;67.39;100893.81;5056471;28;20025;-80
2024/01/06 05:41:42;;;;;;;0.17;0.17;;;;;;;7.27;67.04;100897.31;5063294;28;20031;-82
2024/01/06 05:44:08;;;;;;;0.20;0.20;;;;;;;7.22;67.08;100899.09;5056355;28;20033;-82
2024/01/06 05:46:35;;;;;;;0.20;0.20;;;;;;;7.16;67.69;100899.13;5056711;28;20037;-81
2024/01/06 05:49:02;;;;;;;0.10;0.10;;;;;;;7.18;67.41;100907.00;5055487;28;20541;-81
2024/01/06 05:51:28;;;;;;;0.60;0.60;;;;;;;7.23;67.80;100905.25;5057836;28;20032;-82
2024/01/06 05:53:54;;;;;;;0.10;0.10;;;;;;;7.16;67.87;100911.44;5057005;28;20028;-81
2024/01/06 05:56:24;;;;;;;0.17;0.17;;;;;;;7.17;67.99;100915.81;5059866;28;20040;-81
2024/01/06 05:58:51;;;;;;;0.30;0.30;;;;;;;7.19;67.63;100916.69;5058987;28;20453;-82
2024/01/06 06:01:18;;;;;;;0.63;0.63;;;;;;;7.09;68.22;100929.91;5058518;28;20078;-80
2024/01/06 06:03:44;;;;;;;0.20;0.20;;;;;;;7.07;68.14;100929.03;5057219;28;20025;-81
2024/01/06 06:06:10;;;;;;;0.20;0.20;;;;;;;7.06;67.69;100937.81;5060766;28;20030;-81
2024/01/06 06:08:36;;;;;;;0.20;0.20;;;;;;;7.07;67.72;100938.69;5059174;28;20052;-81
2024/01/06 06:11:10;;;;;;;12.40;3.72;;;;;;;7.03;68.07;100944.84;5052976;28;20045;-80
2024/01/06 06:13:37;;;;;;;0.10;0.10;;;;;;;7.09;67.99;100951.00;5052946;28;20032;-80
2024/01/06 06:16:04;;;;;;;0.20;0.20;;;;;;;7.19;68.27;100953.56;5051237;28;20018;-81
2024/01/06 06:18:30;;;;;;;0.20;0.20;;;;;;;7.12;67.78;100964.13;5060643;28;20033;-80
2024/01/06 06:20:56;;;;;;;0.20;0.20;;;;;;;7.15;68.46;100960.59;5066056;28;20036;-81
2024/01/06 06:23:23;;;;;;;0.15;0.15;;;;;;;7.12;68.27;100961.50;5053424;28;20029;-81
2024/01/06 06:25:49;;;;;;;0.20;0.20;;;;;;;7.20;68.28;100963.22;5051578;28;20025;-80
2024/01/06 06:28:15;;;;;;;0.20;0.20;;;;;;;7.09;68.73;100971.16;5055781;28;20048;-80
2024/01/06 06:30:41;;;;;;;0.20;0.20;;;;;;;7.21;68.45;100970.25;5056907;28;20028;-80
2024/01/06 06:33:08;;;;;;;0.20;0.20;;;;;;;7.19;68.49;100979.91;5056252;28;20049;-80
2024/01/06 06:35:34;;;;;;;0.35;0.35;;;;;;;7.22;68.46;100972.03;5054996;28;20400;-80
2024/01/06 06:38:00;;;;;;;0.20;0.20;;;;;;;7.23;68.50;100984.31;5057462;28;20093;-80
2024/01/06 06:40:26;;;;;;;0.20;0.20;;;;;;;7.22;68.38;100985.19;5059671;28;20070;-80
2024/01/06 06:42:52;;;;;;;0.20;0.20;;;;;;;7.28;68.44;100987.81;5064869;28;20021;-80
2024/01/06 06:45:22;;;;;;;0.20;0.20;;;;;;;7.31;68.37;100992.19;5060625;28;20511;-80
2024/01/06 06:47:49;;;;;;;0.20;0.20;;;;;;;7.28;68.44;101000.97;5053479;28;20448;-80
2024/01/06 06:50:16;;;;;;;0.20;0.20;;;;;;;7.23;68.76;101005.41;5055662;28;20036;-80
2024/01/06 06:52:43;;;;;;;0.20;0.20;;;;;;;7.22;68.58;101004.50;5056751;28;20500;-80
2024/01/06 06:55:09;;;;;;;0.20;0.20;;;;;;;7.28;68.64;101016.81;5051766;28;20029;-81
2024/01/06 06:57:36;;;;;;;0.20;0.20;;;;;;;7.26;68.46;101014.19;5060952;28;20037;-81
2024/01/06 07:00:02;;;;;;;0.20;0.20;;;;;;;7.25;68.54;101022.06;5065090;28;20410;-81
2024/01/06 07:02:28;;;;;;;0.40;0.40;;;;;;;7.21;68.83;101025.59;5058102;28;20068;-79
2024/01/06 07:04:54;;;;;;;0.40;0.40;;;;;;;7.15;68.72;101023.84;5053405;28;20033;-80
2024/01/06 07:07:21;;;;;;;0.20;0.20;;;;;;;7.15;68.87;101030.88;5049511;28;20055;-80
2024/01/06 07:09:47;;;;;;;0.30;0.30;;;;;;;7.09;69.00;101040.56;5060485;28;20495;-80
2024/01/06 07:12:13;;;;;;;0.20;0.20;;;;;;;7.07;69.07;101036.19;5051526;28;20107;-81
2024/01/06 07:14:39;;;;;;;0.20;0.20;;;;;;;7.10;68.97;101038.78;5059542;28;20112;-81
2024/01/06 07:17:05;;;;;;;0.20;0.20;;;;;;;7.09;68.80;101051.09;5058297;28;20088;-79
2024/01/06 07:19:33;;;;;;;0.10;0.10;;;;;;;7.12;69.04;101051.09;5059247;28;20060;-80
2024/01/06 07:21:59;;;;;;;0.20;0.20;;;;;;;7.07;68.41;101060.75;5057512;28;20094;-81
2024/01/06 07:24:26;;;;;;;0.20;0.20;;;;;;;7.02;68.37;101073.06;5064921;28;20033;-82
2024/01/06 07:26:52;;;;;;;0.20;0.20;;;;;;;7.04;68.73;101071.31;5060739;28;20064;-81
2024/01/06 07:29:19;;;;;;;0.20;0.20;;;;;;;7.07;68.72;101068.66;5059480;28;20021;-81
2024/01/06 07:31:45;;;;;;;0.20;0.20;;;;;;;7.08;69.05;101086.22;5058188;28;20406;-81
2024/01/06 07:34:11;;;;;;;2.00;0.80;;;;;;;7.08;68.59;101078.34;5064374;28;20029;-81
2024/01/06 07:36:38;;;;;;;0.30;0.30;;;;;;;7.11;68.73;101088.84;5065599;28;20033;-80
2024/01/06 07:39:05;;;;;;;0.13;0.13;;;;;;;7.13;68.83;101088.88;5065670;28;20112;-80
2024/01/06 07:41:32;;;;;;;0.13;0.13;;;;;;;7.09;69.01;101093.25;5063515;28;20029;-81
2024/01/06 07:43:58;;;;;;;0.28;0.28;;;;;;;7.03;68.94;101095.91;5064435;28;20020;-80
2024/01/06 07:46:24;;;;;;;0.20;0.20;;;;;;;7.08;68.41;101107.31;5056791;28;20030;-82
2024/01/06 07:48:50;;;;;;;0.20;0.20;;;;;;;7.09;68.97;101114.34;5067329;28;20033;-80
2024/01/06 07:51:17;;;;;;;0.20;0.20;;;;;;;7.11;69.00;101104.66;5067837;28;20044;-80
2024/01/06 07:53:43;;;;;;;3.80;2.92;;;;;;;7.16;68.38;101109.94;5069283;28;20052;-80
2024/01/06 07:56:09;;;;;;;0.10;0.10;;;;;;;7.12;68.68;101111.69;5067334;28;20032;-80
2024/01/06 07:58:35;;;;;;;0.20;0.20;;;;;;;7.15;68.16;101109.94;5062602;28;20140;-80
2024/01/06 08:01:01;;;;;;;0.20;0.20;;;;;;;7.15;68.54;101112.56;5050646;28;20060;-80
2024/01/06 08:03:28;;;;;;;0.30;0.30;;;;;;;7.12;68.50;101119.59;5062614;28;20036;-79
2024/01/06 08:05:54;;;;;;;0.20;0.20;;;;;;;7.12;68.37;101124.88;5071827;28;20085;-81
2024/01/06 08:08:20;;;;;;;0.10;0.10;;;;;;;7.10;67.85;101131.03;5068178;28;20021;-80
2024/01/06 08:10:47;;;;;;;0.20;0.20;;;;;;;7.10;67.78;101141.56;5055981;28;20033;-81
2024/01/06 08:13:13;;;;;;;0.82;0.82;;;;;;;7.07;67.76;101146.84;5064570;28;20299;-80
2024/01/06 08:15:39;;;;;;;0.10;0.10;;;;;;;7.05;67.88;101143.31;5070423;28;20041;-81
2024/01/06 08:18:05;;;;;;;0.20;0.20;;;;;;;7.09;68.27;101159.13;5068440;28;20032;-79
2024/01/06 08:20:31;;;;;;;0.28;0.28;;;;;;;7.06;67.89;101148.59;5068193;28;20068;-80
2024/01/06 08:22:57;;;;;;;0.20;0.20;;;;;;;7.16;67.81;101156.50;5067726;28;20021;-80
2024/01/06 08:25:24;;;;;;;0.20;0.20;;;;;;;7.18;67.90;101160.00;5066316;28;20033;-80
2024/01/06 08:27:50;;;;;;;0.20;0.20;;;;;;;7.20;67.94;101160.88;5063649;28;20093;-81
2024/01/06 08:30:16;;;;;;;6.03;1.75;;;;;;;7.16;68.29;101164.41;5064597;28;20423;-79
2024/01/06 08:32:42;;;;;;;0.50;0.50;;;;;;;7.19;67.72;101167.91;5065746;28;20036;-80
2024/01/06 08:35:09;;;;;;;0.57;0.57;;;;;;;7.18;67.63;101171.44;5070387;28;20035;-79
2024/01/06 08:37:35;;;;;;;0.20;0.20;;;;;;;7.11;67.48;101175.81;5068314;28;20041;-81
2024/01/06 08:40:03;;;;;;;0.20;0.20;;;;;;;7.20;67.38;101174.06;5066336;28;20056;-81
2024/01/06 08:42:29;;;;;;;0.30;0.30;;;;;;;7.17;67.38;101179.34;5065721;28;20032;-80
2024/01/06 08:44:55;;;;;;;0.20;0.20;;;;;;;7.24;67.52;101181.97;5069694;28;20056;-82
2024/01/06 08:47:21;;;;;;;0.40;0.40;;;;;;;7.22;67.51;101182.84;5068210;28;20013;-80
2024/01/06 08:49:47;;;;;;;0.30;0.30;;;;;;;7.15;67.68;101179.31;5056589;28;20022;-81
2024/01/06 08:52:13;;;;;;;0.20;0.20;;;;;;;7.19;67.49;101186.38;5054014;28;20029;-81
2024/01/06 08:54:40;;;;;;;0.20;0.20;;;;;;;7.17;67.03;101193.38;5053179;28;20119;-79
2024/01/06 08:57:06;;;;;;;0.20;0.20;;;;;;;7.11;66.79;101196.88;5058472;28;20092;-78
2024/01/06 08:59:32;;;;;;;0.52;0.52;;;;;;;7.05;67.22;101193.38;5063085;28;20067;-81
2024/01/06 09:01:58;;;;;;;0.10;0.10;;;;;;;7.06;66.74;101196.00;5052307;28;20049;-80
2024/01/06 09:04:24;;;;;;;2.58;1.77;;;;;;;7.07;67.46;101203.03;5054294;28;20038;-81
2024/01/06 09:06:51;;;;;;;0.30;0.30;;;;;;;7.12;67.43;101205.69;5055026;28;20032;-81
2024/01/06 09:09:17;;;;;;;0.20;0.20;;;;;;;7.10;67.24;101212.69;5065445;28;20029;-81
2024/01/06 09:11:44;;;;;;;0.20;0.20;;;;;;;7.10;66.71;101216.25;5062205;28;20017;-80
2024/01/06 09:14:11;;;;;;;0.73;0.73;;;;;;;6.97;66.64;101225.88;5060486;28;20111;-82
2024/01/06 09:16:37;;;;;;;0.30;0.30;;;;;;;7.01;66.97;101232.03;5053947;28;20037;-82
2024/01/06 09:19:03;;;;;;;0.20;0.20;;;;;;;7.09;67.15;101225.00;5051634;28;20048;-80
2024/01/06 09:21:29;;;;;;;0.55;0.55;;;;;;;7.13;67.02;101231.16;5053329;28;20122;-81
2024/01/06 09:23:56;;;;;;;0.10;0.10;;;;;;;7.15;66.96;101233.78;5060167;28;20041;-81
2024/01/06 09:26:22;;;;;;;0.20;0.20;;;;;;;7.19;67.02;101236.44;5055578;28;20037;-81
2024/01/06 09:28:48;;;;;;;0.40;0.40;;;;;;;7.22;66.55;101251.38;5055367;28;20026;-81
2024/01/06 09:31:14;;;;;;;0.20;0.20;;;;;;;7.18;66.26;101250.50;5054068;28;20029;-80
2024/01/06 09:33:40;;;;;;;0.20;0.20;;;;;;;7.23;66.98;101253.13;5066838;28;20102;-78
2024/01/06 09:36:11;;;;;;;0.15;0.15;;;;;;;7.29;66.93;101253.13;5057296;28;20030;-81
2024/01/06 09:38:37;;;;;;;0.20;0.20;;;;;;;7.29;66.57;101259.28;5068881;28;20497;-80
2024/01/06 09:41:03;;;;;;;0.10;0.10;;;;;;;7.25;66.24;101259.25;5068650;28;20036;-79
2024/01/06 09:43:30;;;;;;;0.20;0.20;;;;;;;7.34;66.23;101264.56;5063627;28;20034;-81
2024/01/06 09:46:10;;;;;;;1.25;0.65;;;;;;;7.35;66.44;101268.97;5057726;28;20036;-81
2024/01/06 09:48:41;;;;;;;0.60;0.60;;;;;;;7.40;66.12;101276.84;5056563;28;20044;-81
2024/01/06 09:51:10;;;;;;;0.20;0.20;;;;;;;7.33;66.25;101281.25;5056756;28;20028;-81
2024/01/06 09:53:47;;;;;;;0.20;0.20;;;;;;;7.35;65.82;101290.03;5055517;28;20032;-80
2024/01/06 09:56:16;;;;;;;0.20;0.20;;;;;;;7.38;66.39;101287.41;5060048;28;20057;-81
2024/01/06 09:58:44;;;;;;;0.20;0.20;;;;;;;7.36;66.14;101291.78;5060820;28;20033;-81
2024/01/06 10:01:11;;;;;;;0.17;0.17;;;;;;;7.29;65.37;101296.19;5059587;28;20052;-80
2024/01/06 10:03:38;;;;;;;0.20;0.20;;;;;;;7.36;65.79;101296.19;5056903;28;20021;-81
2024/01/06 10:06:05;;;;;;;0.10;0.10;;;;;;;7.39;65.61;101296.16;5059586;28;20025;-81
2024/01/06 10:08:32;;;;;;;0.20;0.20;;;;;;;7.39;65.49;101294.44;5056455;28;20019;-81
2024/01/06 10:11:00;;;;;;;0.20;0.20;;;;;;;7.45;65.58;101304.09;5055716;28;20116;-81
2024/01/06 10:13:28;;;;;;;0.93;0.75;;;;;;;7.46;64.77;101297.94;5055212;28;20032;-81
2024/01/06 10:15:55;;;;;;;0.30;0.30;;;;;;;7.40;64.93;101301.47;5060431;28;20033;-81
2024/01/06 10:18:21;;;;;;;0.13;0.13;;;;;;;7.55;65.13;101312.88;5072138;28;20028;-80
2024/01/06 10:20:48;;;;;;;0.20;0.20;;;;;;;7.55;64.94;101318.16;5077814;28;20027;-79
2024/01/06 10:23:14;;;;;;;0.20;0.20;;;;;;;7.53;64.76;101309.38;5067696;28;20032;-82
2024/01/06 10:25:42;;;;;;;0.20;0.20;;;;;;;7.55;63.91;101312.88;5068434;28;20044;-80
2024/01/06 10:28:13;;;;;;;0.20;0.20;;;;;;;7.63;64.47;101321.69;5068454;28;20021;-80
2024/01/06 10:30:39;;;;;;;0.10;0.10;;;;;;;7.68;64.06;101326.97;5070042;28;20029;-81
2024/01/06 10:33:13;;;;;;;0.20;0.20;;;;;;;7.73;64.82;101325.19;5068607;28;20057;-80
2024/01/06 10:35:40;;;;;;;0.20;0.20;;;;;;;7.64;64.12;101328.72;5067003;28;20056;-82
2024/01/06 10:38:07;;;;;;;0.22;0.22;;;;;;;7.68;65.09;101329.59;5062905;28;20128;-81
2024/01/06 10:40:33;;;;;;;0.10;0.10;;;;;;;7.57;63.70;101340.13;5067163;28;20435;-81
2024/01/06 10:43:01;;;;;;;0.77;0.77;;;;;;;7.59;64.15;101341.03;5062909;28;20034;-80
2024/01/06 10:45:30;;;;;;;0.20;0.20;;;;;;;7.51;64.09;101337.50;5067003;28;20069;-81
2024/01/06 10:47:57;;;;;;;0.20;0.20;;;;;;;7.48;63.92;101340.13;5068707;28;20017;-79
2024/01/06 10:50:24;;;;;;;0.20;0.20;;;;;;;7.50;63.83;101341.00;5074769;28;20005;-80
2024/01/06 10:52:51;;;;;;;0.20;0.20;;;;;;;7.53;64.28;101348.94;5068819;28;20032;-81
2024/01/06 10:55:20;;;;;;;0.20;0.20;;;;;;;7.56;64.08;101351.56;5067972;28;20051;-80
2024/01/06 10:57:48;;;;;;;2.25;2.15;;;;;;;7.51;64.04;101353.31;5066467;28;20051;-81
2024/01/06 11:00:15;;;;;;;0.32;0.32;;;;;;;7.44;64.18;101358.59;5065392;28;20052;-82
2024/01/06 11:02:42;;;;;;;0.10;0.10;;;;;;;7.39;64.04;101349.78;5067038;28;20021;-81
2024/01/06 11:05:10;;;;;;;1.20;1.20;;;;;;;7.40;64.47;101350.66;5067588;28;20029;-81
2024/01/06 11:07:38;;;;;;;0.20;0.20;;;;;;;7.45;64.01;101347.16;5064429;28;20515;-81
2024/01/06 11:12:43;;;;;;;0.20;0.20;;;;;;;7.44;64.39;101361.22;5091610;27;20390;-79
2024/01/06 11:15:10;;;;;;;0.20;0.20;;;;;;;7.45;64.36;101360.34;5095180;28;20028;-81
2024/01/06 11:17:53;;;;;;;0.20;0.20;;;;;;;7.48;64.36;101359.47;5099915;28;20043;-81
2024/01/06 11:20:21;;;;;;;0.20;0.20;;;;;;;7.43;64.17;101361.22;5097648;28;20036;-81
2024/01/06 11:22:48;;;;;;;0.20;0.20;;;;;;;7.42;64.57;101356.81;5101861;28;20028;-79
2024/01/06 11:25:17;;;;;;;0.13;0.13;;;;;;;7.35;64.29;101363.84;5087383;28;20051;-79
2024/01/06 11:27:45;;;;;;;0.20;0.20;;;;;;;7.45;64.62;101364.72;5099824;28;20032;-79
2024/01/06 11:30:29;;;;;;;0.38;0.38;;;;;;;7.52;64.71;101357.72;5100915;28;20279;-80
2024/01/06 11:32:58;;;;;;;0.20;0.20;;;;;;;7.43;64.21;101359.47;5093102;28;20101;-79
2024/01/06 11:35:27;;;;;;;0.20;0.20;;;;;;;7.48;64.70;101359.47;5088348;28;20025;-79